createdAt,value
2023-04-16T00:03:35.050Z,16742.03
2023-04-16T00:07:36.922Z,16725.66
2023-04-16T00:11:39.720Z,16742.03
2023-04-16T00:15:41.345Z,16725.66
2023-04-16T00:19:42.729Z,16754.31
2023-04-16T00:23:44.541Z,16754.31
2023-04-16T00:27:47.535Z,16733.84
2023-04-16T00:31:49.217Z,16713.41
2023-04-16T00:35:50.871Z,16768.63
2023-04-16T00:39:52.487Z,16744.06
2023-04-16T00:43:55.228Z,16733.84
2023-04-16T00:48:00.390Z,16715.44
2023-04-16T00:52:02.081Z,16713.41
2023-04-16T00:56:05.534Z,16705.22
2023-04-16T01:00:09.681Z,16686.81
2023-04-16T01:04:11.293Z,16715.44
2023-04-16T01:08:15.858Z,16713.41
2023-04-16T01:12:17.279Z,16713.41
2023-04-16T01:16:20.066Z,16692.94
2023-04-16T01:20:24.173Z,16705.22
2023-04-16T01:24:27.111Z,16725.66
2023-04-16T01:28:28.547Z,16697.03
2023-04-16T01:32:32.129Z,16701.13
2023-04-16T01:36:33.546Z,16688.88
2023-04-16T01:40:37.774Z,16703.19
2023-04-16T01:44:39.130Z,16709.31
2023-04-16T01:48:40.818Z,16709.31
2023-04-16T01:52:42.450Z,16711.34
2023-04-16T01:56:45.256Z,16703.19
2023-04-16T02:00:47.174Z,16647.97
2023-04-16T02:04:48.584Z,16680.69
2023-04-16T02:08:50.055Z,16672.50
2023-04-16T02:12:52.996Z,16692.94
2023-04-16T02:16:55.657Z,16705.22
2023-04-16T02:21:01.014Z,16719.53
2023-04-16T02:25:02.690Z,16705.22
2023-04-16T02:29:05.715Z,16674.53
2023-04-16T02:33:09.044Z,16672.50
2023-04-16T02:37:10.623Z,16664.31
2023-04-16T02:41:12.035Z,16684.78
2023-04-16T02:45:15.096Z,16703.19
2023-04-16T02:49:16.534Z,16701.13
2023-04-16T02:53:17.936Z,16680.69
2023-04-16T02:57:19.360Z,16701.13
2023-04-16T03:01:22.161Z,16647.97
2023-04-16T03:05:23.955Z,16676.59
2023-04-16T03:09:25.361Z,16686.81
2023-04-16T03:13:26.763Z,16662.28
2023-04-16T03:17:29.901Z,16688.88
2023-04-16T03:21:31.317Z,16690.91
2023-04-16T03:25:32.688Z,16666.38
2023-04-16T03:29:36.629Z,16672.50
2023-04-16T03:33:39.802Z,16695.00
2023-04-16T03:37:41.165Z,16662.28
2023-04-16T03:41:42.763Z,16666.38
2023-04-16T03:45:44.377Z,16676.59
2023-04-16T03:49:47.405Z,16678.63
2023-04-16T03:53:48.968Z,16662.28
2023-04-16T03:57:50.350Z,16660.22
2023-04-16T04:01:51.791Z,16666.38
2023-04-16T04:05:54.892Z,16623.41
2023-04-16T04:09:56.269Z,16697.03
2023-04-16T04:13:57.682Z,16676.59
2023-04-16T04:17:59.935Z,16666.38
2023-04-16T04:22:03.460Z,16643.88
2023-04-16T04:26:05.037Z,16674.53
2023-04-16T04:30:07.973Z,16688.88
2023-04-16T04:34:09.420Z,16682.72
2023-04-16T04:38:14.299Z,16678.63
2023-04-16T04:42:18.452Z,16645.91
2023-04-16T04:46:19.960Z,16664.31
2023-04-16T04:50:21.536Z,16658.19
2023-04-16T04:54:24.267Z,16647.97
2023-04-16T04:58:25.659Z,16672.50
2023-04-16T05:02:27.254Z,16654.09
2023-04-16T05:06:29.703Z,16647.97
2023-04-16T05:10:32.494Z,16647.97
2023-04-16T05:14:33.957Z,16621.38
2023-04-16T05:18:35.378Z,16652.06
2023-04-16T05:22:36.904Z,16662.28
2023-04-16T05:26:39.834Z,16672.50
2023-04-16T05:30:41.249Z,16623.41
2023-04-16T05:34:42.664Z,16633.66
2023-04-16T05:38:44.550Z,16660.22
2023-04-16T05:42:47.533Z,16650.00
2023-04-16T05:46:48.908Z,16684.78
2023-04-16T05:50:50.281Z,16627.50
2023-04-16T05:54:51.792Z,16650.00
2023-04-16T05:58:54.535Z,16656.13
2023-04-16T06:02:56.214Z,16664.31
2023-04-16T06:06:57.660Z,16639.78
2023-04-16T06:10:59.393Z,16652.06
2023-04-16T06:15:02.247Z,16635.69
2023-04-16T06:19:03.690Z,16639.78
2023-04-16T06:23:05.306Z,16660.22
2023-04-16T06:27:06.712Z,16647.97
2023-04-16T06:31:09.473Z,16664.31
2023-04-16T06:35:10.933Z,16647.97
2023-04-16T06:39:12.577Z,16650.00
2023-04-16T06:43:14.016Z,16662.28
2023-04-16T06:47:17.235Z,16660.22
2023-04-16T06:51:18.887Z,16678.63
2023-04-16T06:55:20.356Z,16652.06
2023-04-16T06:59:21.766Z,16664.31
2023-04-16T07:03:24.674Z,16641.81
2023-04-16T07:07:26.165Z,16652.06
2023-04-16T07:11:27.646Z,16641.81
2023-04-16T07:15:29.045Z,16639.78
2023-04-16T07:19:32.014Z,16635.69
2023-04-16T07:23:33.603Z,16611.16
2023-04-16T07:27:34.979Z,16633.66
2023-04-16T07:31:36.419Z,16633.66
2023-04-16T07:35:39.371Z,16623.41
2023-04-16T07:39:40.838Z,16652.06
2023-04-16T07:43:42.228Z,16682.72
2023-04-16T07:47:43.664Z,16625.47
2023-04-16T07:51:46.827Z,16650.00
2023-04-16T07:55:48.224Z,16641.81
2023-04-16T07:59:49.641Z,16639.78
2023-04-16T08:03:51.252Z,16645.91
2023-04-16T08:07:54.085Z,16652.06
2023-04-16T08:11:55.551Z,16645.91
2023-04-16T08:15:57.082Z,16639.78
2023-04-16T08:19:58.557Z,16629.56
2023-04-16T08:24:01.310Z,16666.38
2023-04-16T08:28:02.683Z,16645.91
2023-04-16T08:32:04.162Z,16647.97
2023-04-16T08:36:06.196Z,16637.72
2023-04-16T08:40:09.692Z,16664.31
2023-04-16T08:44:18.497Z,16660.22
2023-04-16T08:48:21.607Z,16641.81
2023-04-16T08:52:25.170Z,16652.06
2023-04-16T08:56:28.672Z,16617.28
2023-04-16T09:00:31.724Z,16643.88
2023-04-16T09:04:34.266Z,16647.97
2023-04-16T09:08:35.850Z,16684.78
2023-04-16T09:12:40.141Z,16676.59
2023-04-16T09:16:41.992Z,16658.19
2023-04-16T09:20:43.472Z,16717.50
2023-04-16T09:24:44.968Z,16692.94
2023-04-16T09:28:48.646Z,16672.50
2023-04-16T09:32:50.804Z,16688.88
2023-04-16T09:36:52.570Z,16676.59
2023-04-16T09:41:06.322Z,16715.44
2023-04-16T09:45:10.009Z,16742.03
2023-04-16T09:49:14.652Z,16764.53
2023-04-16T09:53:23.891Z,16778.84
2023-04-16T09:57:25.321Z,16801.34
2023-04-16T10:01:30.334Z,16815.66
2023-04-16T10:05:31.831Z,16793.16
2023-04-16T10:09:37.493Z,16829.97
2023-04-16T10:13:39.024Z,16789.06
2023-04-16T10:17:42.894Z,16782.94
2023-04-16T10:21:45.571Z,16801.34
2023-04-16T10:25:48.738Z,16815.66
2023-04-16T10:29:50.655Z,16780.88
2023-04-16T10:33:54.375Z,16801.34
2023-04-16T10:37:56.607Z,16817.69
2023-04-16T10:42:09.117Z,16817.69
2023-04-16T10:46:23.974Z,16823.84
2023-04-16T10:50:34.720Z,16825.88
2023-04-16T10:54:36.553Z,16840.19
2023-04-16T10:58:38.178Z,16819.75
2023-04-16T11:02:40.958Z,16823.84
2023-04-16T11:07:00.715Z,16836.09
2023-04-16T11:11:05.283Z,16862.69
2023-04-16T11:15:08.556Z,16832.03
2023-04-16T11:19:16.196Z,16856.56
2023-04-16T11:23:18.943Z,16852.47
2023-04-16T11:27:20.347Z,16881.09
2023-04-16T11:31:21.923Z,16958.81
2023-04-16T11:35:23.532Z,16983.38
2023-04-16T11:39:26.347Z,16979.28
2023-04-16T11:43:27.805Z,16942.47
2023-04-16T11:47:30.411Z,16928.13
2023-04-16T11:51:31.987Z,16889.28
2023-04-16T11:55:43.551Z,16905.66
2023-04-16T12:00:01.553Z,16868.84
2023-04-16T12:04:04.934Z,16872.91
2023-04-16T12:08:08.175Z,16848.38
2023-04-16T12:12:27.275Z,16932.22
2023-04-16T12:16:28.809Z,16893.38
2023-04-16T12:20:39.760Z,16924.06
2023-04-16T12:24:41.249Z,16958.81
2023-04-16T12:28:44.221Z,16987.44
2023-04-16T12:32:47.386Z,16979.28
2023-04-16T12:37:02.504Z,16999.72
2023-04-16T12:41:04.115Z,17028.34
2023-04-16T12:45:07.707Z,17095.84
2023-04-16T12:49:11.032Z,17118.34
2023-04-16T12:53:12.901Z,17142.91
2023-04-16T12:57:14.274Z,17138.81
2023-04-16T13:01:17.024Z,17134.72
2023-04-16T13:05:18.711Z,17095.84
2023-04-16T13:09:20.125Z,17128.56
2023-04-16T13:13:21.495Z,17067.22
2023-04-16T13:17:24.377Z,17069.25
2023-04-16T13:21:25.906Z,17081.53
2023-04-16T13:25:27.318Z,17085.63
2023-04-16T13:29:28.808Z,17110.16
2023-04-16T13:33:31.979Z,17102.00
2023-04-16T13:37:34.512Z,17044.72
2023-04-16T13:41:35.969Z,17073.34
2023-04-16T13:45:37.891Z,17065.16
2023-04-16T13:49:40.608Z,17044.72
2023-04-16T13:53:41.970Z,17061.09
2023-04-16T13:57:43.347Z,17020.19
2023-04-16T14:01:44.779Z,17032.44
2023-04-16T14:05:48.014Z,17077.44
2023-04-16T14:09:49.394Z,17095.84
2023-04-16T14:13:50.805Z,17089.72
2023-04-16T14:17:52.337Z,17102.00
2023-04-16T14:21:55.143Z,17138.81
2023-04-16T14:25:56.789Z,17146.97
2023-04-16T14:29:58.174Z,17128.56
2023-04-16T14:33:59.734Z,17155.16
2023-04-16T14:38:02.782Z,17128.56
2023-04-16T14:42:04.679Z,17110.16
2023-04-16T14:46:06.143Z,17104.03
2023-04-16T14:50:08.543Z,17067.22
2023-04-16T14:54:11.324Z,17134.72
2023-04-16T14:58:12.710Z,17169.47
2023-04-16T15:02:14.360Z,17243.13
2023-04-16T15:06:16.659Z,17228.78
2023-04-16T15:10:19.712Z,17196.06
2023-04-16T15:14:21.258Z,17187.88
2023-04-16T15:18:22.631Z,17198.13
2023-04-16T15:22:24.077Z,17214.47
2023-04-16T15:26:26.839Z,17214.47
2023-04-16T15:30:28.236Z,17114.25
2023-04-16T15:34:29.707Z,17028.34
2023-04-16T15:38:31.065Z,16997.69
2023-04-16T15:42:34.344Z,16969.03
2023-04-16T15:46:35.823Z,16979.28
2023-04-16T15:50:37.446Z,16958.81
2023-04-16T15:54:39.002Z,16979.28
2023-04-16T15:58:41.850Z,16979.28
2023-04-16T16:02:44.675Z,16924.06
2023-04-16T16:06:46.363Z,16926.09
2023-04-16T16:10:47.824Z,16956.78
2023-04-16T16:14:50.600Z,16932.22
2023-04-16T16:18:52.062Z,16997.69
2023-04-16T16:22:53.518Z,16983.38
2023-04-16T16:26:55.172Z,16922.00
2023-04-16T16:31:00.358Z,16917.91
2023-04-16T16:35:02.363Z,16899.50
2023-04-16T16:39:04.342Z,16893.38
2023-04-16T16:43:05.860Z,16891.31
2023-04-16T16:47:08.787Z,16885.19
2023-04-16T16:51:10.344Z,16901.56
2023-04-16T16:55:11.768Z,16856.56
2023-04-16T16:59:13.469Z,16881.09
2023-04-16T17:03:16.563Z,16836.09
2023-04-16T17:07:18.284Z,16885.19
2023-04-16T17:11:19.740Z,16852.47
2023-04-16T17:15:21.941Z,16872.91
2023-04-16T17:19:25.121Z,16901.56
2023-04-16T17:23:26.582Z,16840.19
2023-04-16T17:27:28.033Z,16860.66
2023-04-16T17:31:29.493Z,16879.06
2023-04-16T17:35:32.353Z,16864.75
2023-04-16T17:39:33.753Z,16874.97
2023-04-16T17:43:35.177Z,16897.47
2023-04-16T17:47:37.269Z,16854.50
2023-04-16T17:51:40.078Z,16832.03
2023-04-16T17:55:50.156Z,16862.69
2023-04-16T17:59:51.561Z,16834.06
2023-04-16T18:03:53.172Z,16836.09
2023-04-16T18:07:56.023Z,16825.88
2023-04-16T18:11:57.629Z,16815.66
2023-04-16T18:15:59.178Z,16819.75
2023-04-16T18:20:00.650Z,16819.75
2023-04-16T18:24:04.872Z,16793.16
2023-04-16T18:28:06.314Z,16803.38
2023-04-16T18:32:11.429Z,16832.03
2023-04-16T18:36:13.524Z,16836.09
2023-04-16T18:40:16.458Z,16801.34
2023-04-16T18:44:18.067Z,16852.47
2023-04-16T18:48:19.491Z,16832.03
2023-04-16T18:52:20.908Z,16760.44
2023-04-16T18:56:23.705Z,16768.63
2023-04-16T19:00:25.130Z,16782.94
2023-04-16T19:04:26.736Z,16770.66
2023-04-16T19:08:28.334Z,16799.28
2023-04-16T19:12:32.410Z,16766.56
2023-04-16T19:16:34.118Z,16770.66
2023-04-16T19:20:36.268Z,16797.25
2023-04-16T19:24:37.657Z,16795.22
2023-04-16T19:28:40.766Z,16789.06
2023-04-16T19:32:42.305Z,16787.03
2023-04-16T19:36:43.759Z,16782.94
2023-04-16T19:40:45.635Z,16803.38
2023-04-16T19:44:48.410Z,16778.84
2023-04-16T19:48:49.877Z,16811.56
2023-04-16T19:52:51.339Z,16815.66
2023-04-16T19:56:52.725Z,16797.25
2023-04-16T20:00:56.526Z,16782.94
2023-04-16T20:04:58.025Z,16768.63
2023-04-16T20:09:00.470Z,16764.53
2023-04-16T20:13:01.884Z,16764.53
2023-04-16T20:17:04.878Z,16768.63
2023-04-16T20:21:06.427Z,16807.47
2023-04-16T20:25:09.334Z,16766.56
2023-04-16T20:29:10.860Z,16764.53
2023-04-16T20:33:13.910Z,16766.56
2023-04-16T20:37:15.396Z,16770.66
2023-04-16T20:41:17.078Z,16791.13
2023-04-16T20:45:20.795Z,16766.56
2023-04-16T20:49:23.972Z,16746.13
2023-04-16T20:53:25.508Z,16754.31
2023-04-16T20:57:26.877Z,16772.72
2023-04-16T21:01:28.538Z,16760.44
2023-04-16T21:05:31.303Z,16750.22
2023-04-16T21:09:33.010Z,16752.25
2023-04-16T21:13:34.448Z,16750.22
2023-04-16T21:17:36.147Z,16737.94
2023-04-16T21:21:38.973Z,16776.81
2023-04-16T21:25:40.497Z,16742.03
2023-04-16T21:29:41.973Z,16750.22
2023-04-16T21:33:43.513Z,16729.75
2023-04-16T21:37:46.300Z,16748.16
2023-04-16T21:41:47.971Z,16748.16
2023-04-16T21:45:52.089Z,16740.00
2023-04-16T21:49:53.704Z,16748.16
2023-04-16T21:53:56.757Z,16731.81
2023-04-16T21:57:58.202Z,16754.31
2023-04-16T22:01:59.893Z,16758.41
2023-04-16T22:06:01.774Z,16733.84
2023-04-16T22:10:05.655Z,16740.00
2023-04-16T22:14:07.182Z,16750.22
2023-04-16T22:18:08.725Z,16717.50
2023-04-16T22:22:11.035Z,16723.63
2023-04-16T22:26:13.767Z,16701.13
2023-04-16T22:30:15.443Z,16742.03
2023-04-16T22:34:16.827Z,16729.75
2023-04-16T22:38:18.230Z,16735.91
2023-04-16T22:42:21.025Z,16723.63
2023-04-16T22:46:22.756Z,16725.66
2023-04-16T22:50:24.475Z,16723.63
2023-04-16T22:54:27.998Z,16731.81
2023-04-16T22:58:30.790Z,16729.75
2023-04-16T23:02:32.235Z,16725.66
2023-04-16T23:06:35.993Z,16711.34
2023-04-16T23:10:37.618Z,16703.19
2023-04-16T23:14:40.432Z,16725.66
2023-04-16T23:18:41.848Z,16701.13
2023-04-16T23:22:43.319Z,16688.88
2023-04-16T23:26:45.059Z,16690.91
2023-04-16T23:30:51.393Z,16688.88
2023-04-16T23:34:52.948Z,16692.94
2023-04-16T23:38:54.966Z,16686.81
2023-04-16T23:42:56.416Z,16688.88
2023-04-16T23:46:59.219Z,16705.22
2023-04-16T23:51:00.770Z,16717.50
2023-04-16T23:55:02.337Z,16711.34
2023-04-16T23:59:03.720Z,16709.31
